sensor_id;sensor_type;location;lat;lon;timestamp;pressure;altitude;pressure_sealevel;temperature;humidity
51687;BME280;37774;52.192;4.584;2023-04-01T00:01:26;58496.22;;;-147.98;100.00
51687;BME280;37774;52.192;4.584;2023-04-01T00:04:11;58496.22;;;-147.98;100.00
51687;BME280;37774;52.192;4.584;2023-04-01T00:06:57;58496.22;;;-147.98;100.00
51687;BME280;37774;52.192;4.584;2023-04-01T00:09:43;58496.22;;;-147.98;100.00
51687;BME280;37774;52.192;4.584;2023-04-01T00:12:29;58496.22;;;-147.98;100.00
51687;BME280;37774;52.192;4.584;2023-04-01T00:15:14;58496.22;;;-147.98;100.00
51687;BME280;37774;52.192;4.584;2023-04-01T00:18:01;58496.22;;;-147.98;100.00
51687;BME280;37774;52.192;4.584;2023-04-01T00:20:48;58496.22;;;-147.98;100.00
51687;BME280;37774;52.192;4.584;2023-04-01T00:23:34;58496.22;;;-147.98;100.00
51687;BME280;37774;52.192;4.584;2023-04-01T00:26:20;58496.22;;;-147.98;100.00
51687;BME280;37774;52.192;4.584;2023-04-01T00:29:05;58496.22;;;-147.98;100.00
51687;BME280;37774;52.192;4.584;2023-04-01T00:31:52;58496.22;;;-147.98;100.00
51687;BME280;37774;52.192;4.584;2023-04-01T00:34:38;58496.22;;;-147.98;100.00
51687;BME280;37774;52.192;4.584;2023-04-01T00:37:24;58496.22;;;-147.98;100.00
51687;BME280;37774;52.192;4.584;2023-04-01T00:40:24;58496.22;;;-147.98;100.00
51687;BME280;37774;52.192;4.584;2023-04-01T00:43:11;58496.22;;;-147.98;100.00
51687;BME280;37774;52.192;4.584;2023-04-01T00:45:56;58496.22;;;-147.98;100.00
51687;BME280;37774;52.192;4.584;2023-04-01T00:48:46;58496.22;;;-147.98;100.00
51687;BME280;37774;52.192;4.584;2023-04-01T00:51:34;58496.22;;;-147.98;100.00
51687;BME280;37774;52.192;4.584;2023-04-01T00:54:22;58496.22;;;-147.98;100.00
51687;BME280;37774;52.192;4.584;2023-04-01T00:57:09;58496.22;;;-147.98;100.00
51687;BME280;37774;52.192;4.584;2023-04-01T00:59:56;58496.22;;;-147.98;100.00
51687;BME280;37774;52.192;4.584;2023-04-01T01:02:44;58496.22;;;-147.98;100.00
51687;BME280;37774;52.192;4.584;2023-04-01T01:05:38;58496.22;;;-147.98;100.00
51687;BME280;37774;52.192;4.584;2023-04-01T01:08:46;58496.22;;;-147.98;100.00
51687;BME280;37774;52.192;4.584;2023-04-01T01:11:39;58496.22;;;-147.98;100.00
51687;BME280;37774;52.192;4.584;2023-04-01T01:14:34;58496.22;;;-147.98;100.00
51687;BME280;37774;52.192;4.584;2023-04-01T01:17:30;58496.22;;;-147.98;100.00
51687;BME280;37774;52.192;4.584;2023-04-01T01:23:57;58496.22;;;-147.98;100.00
51687;BME280;37774;52.192;4.584;2023-04-01T01:26:59;58496.22;;;-147.98;100.00
51687;BME280;37774;52.192;4.584;2023-04-01T01:29:58;58496.22;;;-147.98;100.00
51687;BME280;37774;52.192;4.584;2023-04-01T01:33:19;58496.22;;;-147.98;100.00
51687;BME280;37774;52.192;4.584;2023-04-01T01:36:10;58496.22;;;-147.98;100.00
51687;BME280;37774;52.192;4.584;2023-04-01T01:38:58;58496.22;;;-147.98;100.00
51687;BME280;37774;52.192;4.584;2023-04-01T01:41:45;58496.22;;;-147.98;100.00
51687;BME280;37774;52.192;4.584;2023-04-01T01:44:35;58496.22;;;-147.98;100.00
51687;BME280;37774;52.192;4.584;2023-04-01T01:47:22;58496.22;;;-147.98;100.00
51687;BME280;37774;52.192;4.584;2023-04-01T01:50:09;58496.22;;;-147.98;100.00
51687;BME280;37774;52.192;4.584;2023-04-01T01:53:05;58496.22;;;-147.98;100.00
51687;BME280;37774;52.192;4.584;2023-04-01T01:55:50;58496.22;;;-147.98;100.00
51687;BME280;37774;52.192;4.584;2023-04-01T01:58:39;58496.22;;;-147.98;100.00
51687;BME280;37774;52.192;4.584;2023-04-01T02:01:28;58496.22;;;-147.98;100.00
51687;BME280;37774;52.192;4.584;2023-04-01T02:04:15;58496.22;;;-147.98;100.00
51687;BME280;37774;52.192;4.584;2023-04-01T02:07:03;58496.22;;;-147.98;100.00
51687;BME280;37774;52.192;4.584;2023-04-01T02:09:51;58496.22;;;-147.98;100.00
51687;BME280;37774;52.192;4.584;2023-04-01T02:12:37;58496.22;;;-147.98;100.00
51687;BME280;37774;52.192;4.584;2023-04-01T02:15:25;58496.22;;;-147.98;100.00
51687;BME280;37774;52.192;4.584;2023-04-01T02:18:15;58496.22;;;-147.98;100.00
51687;BME280;37774;52.192;4.584;2023-04-01T02:21:03;58496.22;;;-147.98;100.00
51687;BME280;37774;52.192;4.584;2023-04-01T02:23:52;58496.22;;;-147.98;100.00
51687;BME280;37774;52.192;4.584;2023-04-01T02:26:40;58496.22;;;-147.98;100.00
51687;BME280;37774;52.192;4.584;2023-04-01T02:29:26;58496.22;;;-147.98;100.00
51687;BME280;37774;52.192;4.584;2023-04-01T02:32:12;58496.22;;;-147.98;100.00
51687;BME280;37774;52.192;4.584;2023-04-01T02:34:59;58496.22;;;-147.98;100.00
51687;BME280;37774;52.192;4.584;2023-04-01T02:37:49;58496.22;;;-147.98;100.00
51687;BME280;37774;52.192;4.584;2023-04-01T02:40:44;58496.22;;;-147.98;100.00
51687;BME280;37774;52.192;4.584;2023-04-01T02:43:31;58496.22;;;-147.98;100.00
51687;BME280;37774;52.192;4.584;2023-04-01T02:46:17;58496.22;;;-147.98;100.00
51687;BME280;37774;52.192;4.584;2023-04-01T02:49:03;58496.22;;;-147.98;100.00
51687;BME280;37774;52.192;4.584;2023-04-01T02:51:48;58496.22;;;-147.98;100.00
51687;BME280;37774;52.192;4.584;2023-04-01T02:54:34;58496.22;;;-147.98;100.00
51687;BME280;37774;52.192;4.584;2023-04-01T02:57:19;58496.22;;;-147.98;100.00
51687;BME280;37774;52.192;4.584;2023-04-01T03:00:08;58496.22;;;-147.98;100.00
51687;BME280;37774;52.192;4.584;2023-04-01T03:02:54;58496.22;;;-147.98;100.00
51687;BME280;37774;52.192;4.584;2023-04-01T03:05:40;58496.22;;;-147.98;100.00
51687;BME280;37774;52.192;4.584;2023-04-01T03:08:26;58496.22;;;-147.98;100.00
51687;BME280;37774;52.192;4.584;2023-04-01T03:11:12;58496.22;;;-147.98;100.00
51687;BME280;37774;52.192;4.584;2023-04-01T03:13:57;58496.22;;;-147.98;100.00
51687;BME280;37774;52.192;4.584;2023-04-01T03:16:44;58496.22;;;-147.98;100.00
51687;BME280;37774;52.192;4.584;2023-04-01T03:19:30;58496.22;;;-147.98;100.00
51687;BME280;37774;52.192;4.584;2023-04-01T03:22:15;58496.22;;;-147.98;100.00
51687;BME280;37774;52.192;4.584;2023-04-01T03:25:03;58496.22;;;-147.98;100.00
51687;BME280;37774;52.192;4.584;2023-04-01T03:27:49;58496.22;;;-147.98;100.00
51687;BME280;37774;52.192;4.584;2023-04-01T03:30:34;58496.22;;;-147.98;100.00
51687;BME280;37774;52.192;4.584;2023-04-01T03:33:21;58496.22;;;-147.98;100.00
51687;BME280;37774;52.192;4.584;2023-04-01T03:36:07;58496.22;;;-147.98;100.00
51687;BME280;37774;52.192;4.584;2023-04-01T03:38:52;58496.22;;;-147.98;100.00
51687;BME280;37774;52.192;4.584;2023-04-01T03:41:38;58496.22;;;-147.98;100.00
51687;BME280;37774;52.192;4.584;2023-04-01T03:44:23;58496.22;;;-147.98;100.00
51687;BME280;37774;52.192;4.584;2023-04-01T03:47:09;58496.22;;;-147.98;100.00
51687;BME280;37774;52.192;4.584;2023-04-01T03:49:55;58496.22;;;-147.98;100.00
51687;BME280;37774;52.192;4.584;2023-04-01T03:52:41;58496.22;;;-147.98;100.00
51687;BME280;37774;52.192;4.584;2023-04-01T03:55:26;58496.22;;;-147.98;100.00
51687;BME280;37774;52.192;4.584;2023-04-01T03:58:11;58496.22;;;-147.98;100.00
51687;BME280;37774;52.192;4.584;2023-04-01T04:00:57;58496.22;;;-147.98;100.00
51687;BME280;37774;52.192;4.584;2023-04-01T04:03:42;58496.22;;;-147.98;100.00
51687;BME280;37774;52.192;4.584;2023-04-01T04:06:31;58496.22;;;-147.98;100.00
51687;BME280;37774;52.192;4.584;2023-04-01T04:09:16;58496.22;;;-147.98;100.00
51687;BME280;37774;52.192;4.584;2023-04-01T04:12:02;58496.22;;;-147.98;100.00
51687;BME280;37774;52.192;4.584;2023-04-01T04:14:49;58496.22;;;-147.98;100.00
51687;BME280;37774;52.192;4.584;2023-04-01T04:17:35;58496.22;;;-147.98;100.00
51687;BME280;37774;52.192;4.584;2023-04-01T04:20:20;58496.22;;;-147.98;100.00
51687;BME280;37774;52.192;4.584;2023-04-01T04:23:07;58496.22;;;-147.98;100.00
51687;BME280;37774;52.192;4.584;2023-04-01T04:25:54;58496.22;;;-147.98;100.00
51687;BME280;37774;52.192;4.584;2023-04-01T04:28:39;58496.22;;;-147.98;100.00
51687;BME280;37774;52.192;4.584;2023-04-01T04:31:25;58496.22;;;-147.98;100.00
51687;BME280;37774;52.192;4.584;2023-04-01T04:34:11;58496.22;;;-147.98;100.00
51687;BME280;37774;52.192;4.584;2023-04-01T04:36:56;58496.22;;;-147.98;100.00
51687;BME280;37774;52.192;4.584;2023-04-01T04:39:43;58496.22;;;-147.98;100.00
51687;BME280;37774;52.192;4.584;2023-04-01T04:42:29;58496.22;;;-147.98;100.00
51687;BME280;37774;52.192;4.584;2023-04-01T04:45:14;58496.22;;;-147.98;100.00
51687;BME280;37774;52.192;4.584;2023-04-01T04:48:00;58496.22;;;-147.98;100.00
51687;BME280;37774;52.192;4.584;2023-04-01T04:50:46;58496.22;;;-147.98;100.00
51687;BME280;37774;52.192;4.584;2023-04-01T04:53:32;58496.22;;;-147.98;100.00
51687;BME280;37774;52.192;4.584;2023-04-01T04:56:21;58496.22;;;-147.98;100.00
51687;BME280;37774;52.192;4.584;2023-04-01T04:59:06;58496.22;;;-147.98;100.00
51687;BME280;37774;52.192;4.584;2023-04-01T05:01:52;58496.22;;;-147.98;100.00
51687;BME280;37774;52.192;4.584;2023-04-01T05:04:37;58496.22;;;-147.98;100.00
51687;BME280;37774;52.192;4.584;2023-04-01T05:07:23;58496.22;;;-147.98;100.00
51687;BME280;37774;52.192;4.584;2023-04-01T05:10:09;58496.22;;;-147.98;100.00
51687;BME280;37774;52.192;4.584;2023-04-01T05:12:55;58496.22;;;-147.98;100.00
51687;BME280;37774;52.192;4.584;2023-04-01T05:15:41;58496.22;;;-147.98;100.00
51687;BME280;37774;52.192;4.584;2023-04-01T05:18:26;58496.22;;;-147.98;100.00
51687;BME280;37774;52.192;4.584;2023-04-01T05:21:13;58496.22;;;-147.98;100.00
51687;BME280;37774;52.192;4.584;2023-04-01T05:23:58;58496.22;;;-147.98;100.00
51687;BME280;37774;52.192;4.584;2023-04-01T05:26:44;58496.22;;;-147.98;100.00
51687;BME280;37774;52.192;4.584;2023-04-01T05:29:30;58496.22;;;-147.98;100.00
51687;BME280;37774;52.192;4.584;2023-04-01T05:32:16;58496.22;;;-147.98;100.00
51687;BME280;37774;52.192;4.584;2023-04-01T05:35:01;58496.22;;;-147.98;100.00
51687;BME280;37774;52.192;4.584;2023-04-01T05:37:47;58496.22;;;-147.98;100.00
51687;BME280;37774;52.192;4.584;2023-04-01T05:40:33;58496.22;;;-147.98;100.00
51687;BME280;37774;52.192;4.584;2023-04-01T05:43:18;58496.22;;;-147.98;100.00
51687;BME280;37774;52.192;4.584;2023-04-01T05:46:05;58496.22;;;-147.98;100.00
51687;BME280;37774;52.192;4.584;2023-04-01T05:48:50;58496.22;;;-147.98;100.00
51687;BME280;37774;52.192;4.584;2023-04-01T05:51:36;58496.22;;;-147.98;100.00
51687;BME280;37774;52.192;4.584;2023-04-01T05:54:21;58496.22;;;-147.98;100.00
51687;BME280;37774;52.192;4.584;2023-04-01T05:57:07;58496.22;;;-147.98;100.00
51687;BME280;37774;52.192;4.584;2023-04-01T05:59:53;58496.22;;;-147.98;100.00
51687;BME280;37774;52.192;4.584;2023-04-01T06:02:40;58496.22;;;-147.98;100.00
51687;BME280;37774;52.192;4.584;2023-04-01T06:05:28;58496.22;;;-147.98;100.00
51687;BME280;37774;52.192;4.584;2023-04-01T06:08:16;58496.22;;;-147.98;100.00
51687;BME280;37774;52.192;4.584;2023-04-01T06:11:12;58496.22;;;-147.98;100.00
51687;BME280;37774;52.192;4.584;2023-04-01T06:14:20;58496.22;;;-147.98;100.00
51687;BME280;37774;52.192;4.584;2023-04-01T06:17:20;58496.22;;;-147.98;100.00
51687;BME280;37774;52.192;4.584;2023-04-01T06:20:18;58496.22;;;-147.98;100.00
51687;BME280;37774;52.192;4.584;2023-04-01T06:23:22;58496.22;;;-147.98;100.00
51687;BME280;37774;52.192;4.584;2023-04-01T06:26:17;58496.22;;;-147.98;100.00
51687;BME280;37774;52.192;4.584;2023-04-01T06:29:25;58496.22;;;-147.98;100.00
51687;BME280;37774;52.192;4.584;2023-04-01T06:35:53;58496.22;;;-147.98;100.00
51687;BME280;37774;52.192;4.584;2023-04-01T06:38:53;58496.22;;;-147.98;100.00
51687;BME280;37774;52.192;4.584;2023-04-01T06:44:59;58496.22;;;-147.98;100.00
51687;BME280;37774;52.192;4.584;2023-04-01T06:48:00;58496.22;;;-147.98;100.00
51687;BME280;37774;52.192;4.584;2023-04-01T06:50:54;58496.22;;;-147.98;100.00
51687;BME280;37774;52.192;4.584;2023-04-01T06:53:47;58496.22;;;-147.98;100.00
51687;BME280;37774;52.192;4.584;2023-04-01T06:56:36;58496.22;;;-147.98;100.00
51687;BME280;37774;52.192;4.584;2023-04-01T06:59:25;58496.22;;;-147.98;100.00
51687;BME280;37774;52.192;4.584;2023-04-01T07:02:21;58496.22;;;-147.98;100.00
51687;BME280;37774;52.192;4.584;2023-04-01T07:05:11;58496.22;;;-147.98;100.00
51687;BME280;37774;52.192;4.584;2023-04-01T07:08:01;58496.22;;;-147.98;100.00
51687;BME280;37774;52.192;4.584;2023-04-01T07:10:51;58496.22;;;-147.98;100.00
51687;BME280;37774;52.192;4.584;2023-04-01T07:13:41;58496.22;;;-147.98;100.00
51687;BME280;37774;52.192;4.584;2023-04-01T07:16:30;58496.22;;;-147.98;100.00
51687;BME280;37774;52.192;4.584;2023-04-01T07:19:22;58496.22;;;-147.98;100.00
51687;BME280;37774;52.192;4.584;2023-04-01T07:22:19;58496.22;;;-147.98;100.00
51687;BME280;37774;52.192;4.584;2023-04-01T07:25:13;58496.22;;;-147.98;100.00
51687;BME280;37774;52.192;4.584;2023-04-01T07:28:01;58496.22;;;-147.98;100.00
51687;BME280;37774;52.192;4.584;2023-04-01T07:30:52;58496.22;;;-147.98;100.00
51687;BME280;37774;52.192;4.584;2023-04-01T07:33:48;58496.22;;;-147.98;100.00
51687;BME280;37774;52.192;4.584;2023-04-01T07:36:39;58496.22;;;-147.98;100.00
51687;BME280;37774;52.192;4.584;2023-04-01T07:39:36;58496.22;;;-147.98;100.00
51687;BME280;37774;52.192;4.584;2023-04-01T07:42:31;58496.22;;;-147.98;100.00
51687;BME280;37774;52.192;4.584;2023-04-01T07:45:25;58496.22;;;-147.98;100.00
51687;BME280;37774;52.192;4.584;2023-04-01T07:48:21;58496.22;;;-147.98;100.00
51687;BME280;37774;52.192;4.584;2023-04-01T07:51:13;58496.22;;;-147.98;100.00
51687;BME280;37774;52.192;4.584;2023-04-01T07:54:03;58496.22;;;-147.98;100.00
51687;BME280;37774;52.192;4.584;2023-04-01T07:56:55;58496.22;;;-147.98;100.00
51687;BME280;37774;52.192;4.584;2023-04-01T07:59:56;58496.22;;;-147.98;100.00
51687;BME280;37774;52.192;4.584;2023-04-01T08:03:03;58496.22;;;-147.98;100.00
51687;BME280;37774;52.192;4.584;2023-04-01T08:05:56;58496.22;;;-147.98;100.00
51687;BME280;37774;52.192;4.584;2023-04-01T08:08:50;58496.22;;;-147.98;100.00
51687;BME280;37774;52.192;4.584;2023-04-01T08:11:49;58496.22;;;-147.98;100.00
51687;BME280;37774;52.192;4.584;2023-04-01T08:14:50;58496.22;;;-147.98;100.00
51687;BME280;37774;52.192;4.584;2023-04-01T08:17:46;58496.22;;;-147.98;100.00
51687;BME280;37774;52.192;4.584;2023-04-01T08:20:37;58496.22;;;-147.98;100.00
51687;BME280;37774;52.192;4.584;2023-04-01T08:23:27;58496.22;;;-147.98;100.00
51687;BME280;37774;52.192;4.584;2023-04-01T08:26:22;58496.22;;;-147.98;100.00
51687;BME280;37774;52.192;4.584;2023-04-01T08:29:14;58496.22;;;-147.98;100.00
51687;BME280;37774;52.192;4.584;2023-04-01T08:32:06;58496.22;;;-147.98;100.00
51687;BME280;37774;52.192;4.584;2023-04-01T08:35:07;58496.22;;;-147.98;100.00
51687;BME280;37774;52.192;4.584;2023-04-01T08:37:57;58496.22;;;-147.98;100.00
51687;BME280;37774;52.192;4.584;2023-04-01T08:40:58;58496.22;;;-147.98;100.00
51687;BME280;37774;52.192;4.584;2023-04-01T08:43:54;58496.22;;;-147.98;100.00
51687;BME280;37774;52.192;4.584;2023-04-01T08:47:00;58496.22;;;-147.98;100.00
51687;BME280;37774;52.192;4.584;2023-04-01T08:50:19;58496.22;;;-147.98;100.00
51687;BME280;37774;52.192;4.584;2023-04-01T08:53:11;58496.22;;;-147.98;100.00
51687;BME280;37774;52.192;4.584;2023-04-01T08:56:06;58496.22;;;-147.98;100.00
51687;BME280;37774;52.192;4.584;2023-04-01T08:59:07;58496.22;;;-147.98;100.00
51687;BME280;37774;52.192;4.584;2023-04-01T09:02:25;58496.22;;;-147.98;100.00
51687;BME280;37774;52.192;4.584;2023-04-01T09:05:36;58496.22;;;-147.98;100.00
51687;BME280;37774;52.192;4.584;2023-04-01T09:08:31;58496.22;;;-147.98;100.00
51687;BME280;37774;52.192;4.584;2023-04-01T09:11:29;58496.22;;;-147.98;100.00
51687;BME280;37774;52.192;4.584;2023-04-01T09:14:26;58496.22;;;-147.98;100.00
51687;BME280;37774;52.192;4.584;2023-04-01T09:17:39;58496.22;;;-147.98;100.00
51687;BME280;37774;52.192;4.584;2023-04-01T09:20:42;58496.22;;;-147.98;100.00
51687;BME280;37774;52.192;4.584;2023-04-01T09:23:43;58496.22;;;-147.98;100.00
51687;BME280;37774;52.192;4.584;2023-04-01T09:26:47;58496.22;;;-147.98;100.00
51687;BME280;37774;52.192;4.584;2023-04-01T09:36:28;58496.22;;;-147.98;100.00
51687;BME280;37774;52.192;4.584;2023-04-01T09:39:30;58496.22;;;-147.98;100.00
51687;BME280;37774;52.192;4.584;2023-04-01T09:42:43;58496.22;;;-147.98;100.00
51687;BME280;37774;52.192;4.584;2023-04-01T09:45:40;58496.22;;;-147.98;100.00
51687;BME280;37774;52.192;4.584;2023-04-01T09:48:43;58496.22;;;-147.98;100.00
51687;BME280;37774;52.192;4.584;2023-04-01T09:51:42;58496.22;;;-147.98;100.00
51687;BME280;37774;52.192;4.584;2023-04-01T09:54:40;58496.22;;;-147.98;100.00
51687;BME280;37774;52.192;4.584;2023-04-01T10:01:15;58496.22;;;-147.98;100.00
51687;BME280;37774;52.192;4.584;2023-04-01T10:08:02;58496.22;;;-147.98;100.00
51687;BME280;37774;52.192;4.584;2023-04-01T10:11:15;58496.22;;;-147.98;100.00
51687;BME280;37774;52.192;4.584;2023-04-01T10:14:25;58496.22;;;-147.98;100.00
51687;BME280;37774;52.192;4.584;2023-04-01T10:17:31;58496.22;;;-147.98;100.00
51687;BME280;37774;52.192;4.584;2023-04-01T10:20:40;58496.22;;;-147.98;100.00
51687;BME280;37774;52.192;4.584;2023-04-01T10:23:45;58496.22;;;-147.98;100.00
51687;BME280;37774;52.192;4.584;2023-04-01T10:36:47;58496.22;;;-147.98;100.00
51687;BME280;37774;52.192;4.584;2023-04-01T10:40:24;58496.22;;;-147.98;100.00
51687;BME280;37774;52.192;4.584;2023-04-01T10:46:57;58496.22;;;-147.98;100.00
51687;BME280;37774;52.192;4.584;2023-04-01T10:49:47;58496.22;;;-147.98;100.00
51687;BME280;37774;52.192;4.584;2023-04-01T10:56:36;58496.22;;;-147.98;100.00
51687;BME280;37774;52.192;4.584;2023-04-01T10:59:59;58496.22;;;-147.98;100.00
51687;BME280;37774;52.192;4.584;2023-04-01T11:06:35;58496.22;;;-147.98;100.00
51687;BME280;37774;52.192;4.584;2023-04-01T11:09:51;58496.22;;;-147.98;100.00
51687;BME280;37774;52.192;4.584;2023-04-01T11:13:08;58496.22;;;-147.98;100.00
51687;BME280;37774;52.192;4.584;2023-04-01T11:16:23;58496.22;;;-147.98;100.00
51687;BME280;37774;52.192;4.584;2023-04-01T11:26:07;58496.22;;;-147.98;100.00
51687;BME280;37774;52.192;4.584;2023-04-01T11:29:11;58496.22;;;-147.98;100.00
51687;BME280;37774;52.192;4.584;2023-04-01T11:32:16;58496.22;;;-147.98;100.00
51687;BME280;37774;52.192;4.584;2023-04-01T11:35:35;58496.22;;;-147.98;100.00
51687;BME280;37774;52.192;4.584;2023-04-01T11:38:32;58496.22;;;-147.98;100.00
51687;BME280;37774;52.192;4.584;2023-04-01T11:41:26;58496.22;;;-147.98;100.00
51687;BME280;37774;52.192;4.584;2023-04-01T11:44:19;58496.22;;;-147.98;100.00
51687;BME280;37774;52.192;4.584;2023-04-01T11:47:22;58496.22;;;-147.98;100.00
51687;BME280;37774;52.192;4.584;2023-04-01T11:50:19;58496.22;;;-147.98;100.00
51687;BME280;37774;52.192;4.584;2023-04-01T11:53:21;58496.22;;;-147.98;100.00
51687;BME280;37774;52.192;4.584;2023-04-01T11:56:16;58496.22;;;-147.98;100.00
51687;BME280;37774;52.192;4.584;2023-04-01T11:59:31;58496.22;;;-147.98;100.00
51687;BME280;37774;52.192;4.584;2023-04-01T12:02:29;58496.22;;;-147.98;100.00
51687;BME280;37774;52.192;4.584;2023-04-01T12:05:27;58496.22;;;-147.98;100.00
51687;BME280;37774;52.192;4.584;2023-04-01T12:08:28;58496.22;;;-147.98;100.00
51687;BME280;37774;52.192;4.584;2023-04-01T12:11:17;58496.22;;;-147.98;100.00
51687;BME280;37774;52.192;4.584;2023-04-01T12:14:11;58496.22;;;-147.98;100.00
51687;BME280;37774;52.192;4.584;2023-04-01T12:17:07;58496.22;;;-147.98;100.00
51687;BME280;37774;52.192;4.584;2023-04-01T12:20:01;58496.22;;;-147.98;100.00
51687;BME280;37774;52.192;4.584;2023-04-01T12:23:03;58496.22;;;-147.98;100.00
51687;BME280;37774;52.192;4.584;2023-04-01T12:26:12;58496.22;;;-147.98;100.00
51687;BME280;37774;52.192;4.584;2023-04-01T12:29:17;58496.22;;;-147.98;100.00
51687;BME280;37774;52.192;4.584;2023-04-01T12:32:17;58496.22;;;-147.98;100.00
51687;BME280;37774;52.192;4.584;2023-04-01T12:35:20;58496.22;;;-147.98;100.00
51687;BME280;37774;52.192;4.584;2023-04-01T12:38:17;58496.22;;;-147.98;100.00
51687;BME280;37774;52.192;4.584;2023-04-01T12:41:09;58496.22;;;-147.98;100.00
51687;BME280;37774;52.192;4.584;2023-04-01T12:44:23;58496.22;;;-147.98;100.00
51687;BME280;37774;52.192;4.584;2023-04-01T12:50:23;58496.22;;;-147.98;100.00
51687;BME280;37774;52.192;4.584;2023-04-01T12:56:29;58496.22;;;-147.98;100.00
51687;BME280;37774;52.192;4.584;2023-04-01T12:59:34;58496.22;;;-147.98;100.00
51687;BME280;37774;52.192;4.584;2023-04-01T13:02:38;58496.22;;;-147.98;100.00
51687;BME280;37774;52.192;4.584;2023-04-01T13:05:56;58496.22;;;-147.98;100.00
51687;BME280;37774;52.192;4.584;2023-04-01T13:08:55;58496.22;;;-147.98;100.00
51687;BME280;37774;52.192;4.584;2023-04-01T13:11:54;58496.22;;;-147.98;100.00
51687;BME280;37774;52.192;4.584;2023-04-01T13:15:01;58496.22;;;-147.98;100.00
51687;BME280;37774;52.192;4.584;2023-04-01T13:18:00;58496.22;;;-147.98;100.00
51687;BME280;37774;52.192;4.584;2023-04-01T13:20:55;58496.22;;;-147.98;100.00
51687;BME280;37774;52.192;4.584;2023-04-01T13:23:54;58496.22;;;-147.98;100.00
51687;BME280;37774;52.192;4.584;2023-04-01T13:26:53;58496.22;;;-147.98;100.00
51687;BME280;37774;52.192;4.584;2023-04-01T13:29:47;58496.22;;;-147.98;100.00
51687;BME280;37774;52.192;4.584;2023-04-01T13:32:40;58496.22;;;-147.98;100.00
51687;BME280;37774;52.192;4.584;2023-04-01T13:35:40;58496.22;;;-147.98;100.00
51687;BME280;37774;52.192;4.584;2023-04-01T13:38:41;58496.22;;;-147.98;100.00
51687;BME280;37774;52.192;4.584;2023-04-01T13:41:39;58496.22;;;-147.98;100.00
51687;BME280;37774;52.192;4.584;2023-04-01T13:44:33;58496.22;;;-147.98;100.00
51687;BME280;37774;52.192;4.584;2023-04-01T13:47:52;58496.22;;;-147.98;100.00
51687;BME280;37774;52.192;4.584;2023-04-01T13:51:11;58496.22;;;-147.98;100.00
51687;BME280;37774;52.192;4.584;2023-04-01T13:57:27;58496.22;;;-147.98;100.00
51687;BME280;37774;52.192;4.584;2023-04-01T14:04:03;58496.22;;;-147.98;100.00
51687;BME280;37774;52.192;4.584;2023-04-01T14:07:12;58496.22;;;-147.98;100.00
51687;BME280;37774;52.192;4.584;2023-04-01T14:10:13;58496.22;;;-147.98;100.00
51687;BME280;37774;52.192;4.584;2023-04-01T14:13:09;58496.22;;;-147.98;100.00
51687;BME280;37774;52.192;4.584;2023-04-01T14:16:20;58496.22;;;-147.98;100.00
51687;BME280;37774;52.192;4.584;2023-04-01T14:19:23;58496.22;;;-147.98;100.00
51687;BME280;37774;52.192;4.584;2023-04-01T14:22:22;58496.22;;;-147.98;100.00
51687;BME280;37774;52.192;4.584;2023-04-01T14:25:29;58496.22;;;-147.98;100.00
51687;BME280;37774;52.192;4.584;2023-04-01T14:28:25;58496.22;;;-147.98;100.00
51687;BME280;37774;52.192;4.584;2023-04-01T14:31:31;58496.22;;;-147.98;100.00
51687;BME280;37774;52.192;4.584;2023-04-01T14:34:25;58496.22;;;-147.98;100.00
51687;BME280;37774;52.192;4.584;2023-04-01T14:37:30;58496.22;;;-147.98;100.00
51687;BME280;37774;52.192;4.584;2023-04-01T14:40:26;58496.22;;;-147.98;100.00
51687;BME280;37774;52.192;4.584;2023-04-01T14:43:33;58496.22;;;-147.98;100.00
51687;BME280;37774;52.192;4.584;2023-04-01T14:46:48;58496.22;;;-147.98;100.00
51687;BME280;37774;52.192;4.584;2023-04-01T14:49:39;58496.22;;;-147.98;100.00
51687;BME280;37774;52.192;4.584;2023-04-01T14:52:28;58496.22;;;-147.98;100.00
51687;BME280;37774;52.192;4.584;2023-04-01T14:55:27;58496.22;;;-147.98;100.00
51687;BME280;37774;52.192;4.584;2023-04-01T14:58:16;58496.22;;;-147.98;100.00
51687;BME280;37774;52.192;4.584;2023-04-01T15:01:13;58496.22;;;-147.98;100.00
51687;BME280;37774;52.192;4.584;2023-04-01T15:04:18;58496.22;;;-147.98;100.00
51687;BME280;37774;52.192;4.584;2023-04-01T15:10:31;101290.97;;;10.20;100.00
51687;BME280;37774;52.192;4.584;2023-04-01T15:13:31;101198.28;;;10.04;100.00
51687;BME280;37774;52.192;4.584;2023-04-01T15:16:27;101058.94;;;9.11;100.00
51687;BME280;37774;52.192;4.584;2023-04-01T15:19:22;101139.31;;;9.11;100.00
51687;BME280;37774;52.192;4.584;2023-04-01T15:25:34;101291.41;;;9.08;100.00
51687;BME280;37774;52.192;4.584;2023-04-01T15:28:28;101432.69;;;9.69;100.00
51687;BME280;37774;52.192;4.584;2023-04-01T15:31:22;101444.75;;;9.56;100.00
51687;BME280;37774;52.192;4.584;2023-04-01T15:34:25;101475.03;;;9.60;100.00
51687;BME280;37774;52.192;4.584;2023-04-01T15:37:16;101540.00;;;9.77;100.00
51687;BME280;37774;52.192;4.584;2023-04-01T15:40:15;101574.63;;;9.74;100.00
51687;BME280;37774;52.192;4.584;2023-04-01T15:43:18;101579.81;;;9.76;100.00
51687;BME280;37774;52.192;4.584;2023-04-01T15:46:25;101531.97;;;9.40;100.00
51687;BME280;37774;52.192;4.584;2023-04-01T15:49:19;101539.81;;;9.50;100.00
51687;BME280;37774;52.192;4.584;2023-04-01T15:52:14;101488.56;;;9.20;100.00
51687;BME280;37774;52.192;4.584;2023-04-01T15:55:16;101412.13;;;8.76;100.00
51687;BME280;37774;52.192;4.584;2023-04-01T15:58:22;101501.69;;;9.40;100.00
51687;BME280;37774;52.192;4.584;2023-04-01T16:01:22;101429.59;;;8.96;100.00